Time;durP1;ratioP1;P1;durP2;ratioP2;P2;SDS_P1;SDS_P2;PMS_P1;PMS_P2;Temp;Humidity;BMP_temperature;BMP_pressure;BME280_temperature;BME280_humidity;BME280_pressure;Samples;Min_cycle;Max_cycle;Signal;HPM_P1;HPM_P2
2022/09/22 00:00:55;;;;;;;;;;;;;;;25.96;30.32;100712.53;5017155;28;1160;-42
2022/09/22 00:03:20;;;;;;;;;;;;;;;25.87;29.42;100705.50;5016595;28;1140;-43
2022/09/22 00:05:45;;;;;;;;;;;;;;;25.82;29.24;100713.28;5016251;28;1390;-42
2022/09/22 00:08:11;;;;;;;;;;;;;;;25.86;30.10;100706.53;5016571;28;1013;-41
2022/09/22 00:10:36;;;;;;;;;;;;;;;25.90;30.16;100700.59;5016479;28;1179;-41
2022/09/22 00:13:02;;;;;;;;;;;;;;;25.97;30.30;100695.34;5016501;28;1201;-41
2022/09/22 00:15:27;;;;;;;;;;;;;;;25.89;30.09;100703.47;5017179;28;1190;-41
2022/09/22 00:17:52;;;;;;;;;;;;;;;25.89;29.90;100695.38;5016636;28;1183;-40
2022/09/22 00:20:18;;;;;;;;;;;;;;;25.99;29.91;100697.88;5016247;28;1890;-41
2022/09/22 00:22:43;;;;;;;;;;;;;;;26.04;29.95;100690.91;5016432;28;1171;-41
2022/09/22 00:25:09;;;;;;;;;;;;;;;26.09;29.78;100684.97;5016153;28;1206;-42
2022/09/22 00:27:34;;;;;;;;;;;;;;;26.17;29.80;100690.31;5015857;28;1194;-41
2022/09/22 00:29:59;;;;;;;;;;;;;;;26.12;29.91;100690.03;5016495;28;1152;-40
2022/09/22 00:32:25;;;;;;;;;;;;;;;26.28;29.72;100686.41;5016592;28;1136;-41
2022/09/22 00:34:51;;;;;;;;;;;;;;;26.17;30.20;100682.25;5015975;28;1203;-41
2022/09/22 00:37:16;;;;;;;;;;;;;;;26.18;29.93;100683.09;5003017;28;1080;-41
2022/09/22 00:39:42;;;;;;;;;;;;;;;26.20;29.95;100672.13;5016487;28;1907;-42
2022/09/22 00:42:08;;;;;;;;;;;;;;;26.20;30.03;100672.97;5016268;28;1219;-40
2022/09/22 00:44:40;;;;;;;;;;;;;;;26.32;30.00;100678.78;5015236;28;1129;-42
2022/09/22 00:47:17;;;;;;;;;;;;;;;26.26;30.26;100674.09;5019306;28;1227;-39
2022/09/22 00:50:02;;;;;;;;;;;;;;;26.37;29.85;100679.13;5025621;28;1191;-41
2022/09/22 00:52:50;;;;;;;;;;;;;;;26.35;30.21;100678.47;5016201;28;1227;-41
2022/09/22 00:55:17;;;;;;;;;;;;;;;26.31;30.25;100681.66;5005368;28;1207;-41
2022/09/22 00:57:43;;;;;;;;;;;;;;;26.37;29.66;100683.66;5008864;28;1195;-39
2022/09/22 01:00:08;;;;;;;;;;;;;;;26.31;30.16;100689.75;5009093;28;1895;-39
2022/09/22 01:02:34;;;;;;;;;;;;;;;26.34;30.14;100684.03;5030109;28;1155;-42
2022/09/22 01:04:59;;;;;;;;;;;;;;;26.31;30.01;100685.19;5004784;28;1164;-41
2022/09/22 01:07:25;;;;;;;;;;;;;;;26.31;29.99;100684.38;5012297;28;1152;-42
2022/09/22 01:09:51;;;;;;;;;;;;;;;26.44;29.81;100690.03;5006934;28;1211;-40
2022/09/22 01:12:17;;;;;;;;;;;;;;;26.42;30.12;100689.38;5010332;28;1137;-40
2022/09/22 01:15:01;;;;;;;;;;;;;;;26.37;29.80;100680.97;5008826;28;1196;-41
2022/09/22 01:17:45;;;;;;;;;;;;;;;26.38;30.09;100678.09;5013858;28;1145;-42
2022/09/22 01:20:29;;;;;;;;;;;;;;;26.32;29.98;100680.63;5019046;28;1957;-39
2022/09/22 01:23:06;;;;;;;;;;;;;;;26.36;29.61;100679.31;5019652;28;1274;-40
2022/09/22 01:25:31;;;;;;;;;;;;;;;26.34;29.70;100690.25;5019071;28;1269;-41
2022/09/22 01:28:00;;;;;;;;;;;;;;;26.25;30.12;100681.38;5019658;28;1211;-42
2022/09/22 01:30:37;;;;;;;;;;;;;;;26.28;30.18;100690.94;5019615;28;1234;-43
2022/09/22 01:33:08;;;;;;;;;;;;;;;26.22;30.20;100694.34;5016742;28;1191;-44
2022/09/22 01:35:34;;;;;;;;;;;;;;;26.33;29.86;100682.34;5019182;28;1163;-44
2022/09/22 01:38:10;;;;;;;;;;;;;;;26.41;30.18;100688.53;5019512;28;1088;-42
2022/09/22 01:40:43;;;;;;;;;;;;;;;26.35;30.17;100694.63;4998607;28;1144;-43
2022/09/22 01:43:13;;;;;;;;;;;;;;;26.51;29.85;100685.59;5010303;28;1219;-43
2022/09/22 01:45:39;;;;;;;;;;;;;;;26.41;30.12;100690.38;5017815;28;1211;-41
2022/09/22 01:48:13;;;;;;;;;;;;;;;26.45;29.99;100694.41;5003172;28;1252;-44
2022/09/22 01:50:42;;;;;;;;;;;;;;;26.34;30.12;100689.44;5005777;28;1404;-45
2022/09/22 01:53:09;;;;;;;;;;;;;;;26.41;30.19;100693.91;5000024;28;1038;-43
2022/09/22 01:55:38;;;;;;;;;;;;;;;26.29;30.11;100698.84;5009532;28;1262;-42
2022/09/22 01:58:09;;;;;;;;;;;;;;;26.21;30.06;100698.91;5014895;28;1144;-41
2022/09/22 02:00:35;;;;;;;;;;;;;;;26.23;30.38;100699.56;5012982;28;1227;-42
2022/09/22 02:03:04;;;;;;;;;;;;;;;26.25;30.19;100697.53;5018597;28;1131;-42
2022/09/22 02:05:34;;;;;;;;;;;;;;;26.20;30.31;100694.53;5004061;28;1200;-43
2022/09/22 02:08:00;;;;;;;;;;;;;;;26.21;30.07;100696.22;5018436;28;883;-43
2022/09/22 02:10:28;;;;;;;;;;;;;;;26.23;29.90;100691.47;5018625;28;1183;-42
2022/09/22 02:12:54;;;;;;;;;;;;;;;26.14;30.30;100690.69;4998496;28;1176;-43
2022/09/22 02:18:12;;;;;;;;;;;;;;;26.32;29.68;100681.50;5017845;28;1195;-43
2022/09/22 02:20:37;;;;;;;;;;;;;;;26.21;29.95;100681.91;5004087;28;991;-43
2022/09/22 02:23:03;;;;;;;;;;;;;;;26.23;29.89;100685.25;5013527;28;1275;-44
2022/09/22 02:25:28;;;;;;;;;;;;;;;26.16;29.86;100685.13;5010864;28;1199;-47
2022/09/22 02:27:54;;;;;;;;;;;;;;;25.98;29.43;100682.69;5009344;28;1261;-41
2022/09/22 02:30:19;;;;;;;;;;;;;;;26.08;29.27;100685.16;5003395;28;1232;-40
2022/09/22 02:32:45;;;;;;;;;;;;;;;26.03;29.82;100685.69;5006956;28;927;-44
2022/09/22 02:35:11;;;;;;;;;;;;;;;26.08;29.35;100682.47;5016651;28;1187;-42
2022/09/22 02:37:48;;;;;;;;;;;;;;;26.03;29.62;100680.31;5017745;28;1242;-43
2022/09/22 02:40:19;;;;;;;;;;;;;;;26.02;29.17;100684.88;5002987;28;1999;-44
2022/09/22 02:42:53;;;;;;;;;;;;;;;26.10;29.09;100686.69;5018221;28;1230;-43
2022/09/22 02:45:23;;;;;;;;;;;;;;;26.07;29.39;100686.19;5010237;28;1068;-38
2022/09/22 02:47:56;;;;;;;;;;;;;;;26.15;29.12;100686.13;4998917;28;1176;-41
2022/09/22 02:50:21;;;;;;;;;;;;;;;26.26;28.92;100687.56;5008083;28;1232;-40
2022/09/22 02:52:48;;;;;;;;;;;;;;;26.22;28.66;100697.91;5002755;28;1239;-42
2022/09/22 02:55:15;;;;;;;;;;;;;;;26.16;28.90;100694.06;5008202;28;1142;-41
2022/09/22 02:57:42;;;;;;;;;;;;;;;26.14;28.90;100695.25;5016371;28;1234;-40
2022/09/22 03:00:07;;;;;;;;;;;;;;;25.75;28.21;100687.03;5017637;28;1967;-41
2022/09/22 03:02:33;;;;;;;;;;;;;;;25.26;27.61;100683.44;5016657;28;1274;-41
2022/09/22 03:04:58;;;;;;;;;;;;;;;24.86;27.67;100690.56;5017877;28;1147;-42
2022/09/22 03:07:23;;;;;;;;;;;;;;;24.57;28.40;100688.19;5017293;28;1210;-41
2022/09/22 03:09:48;;;;;;;;;;;;;;;24.66;28.48;100682.81;5017123;28;1163;-41
2022/09/22 03:12:14;;;;;;;;;;;;;;;24.59;29.61;100696.09;5017546;28;1163;-40
2022/09/22 03:14:39;;;;;;;;;;;;;;;24.43;29.14;100684.31;5017588;28;1076;-40
2022/09/22 03:17:04;;;;;;;;;;;;;;;24.07;29.17;100680.00;5017061;28;1159;-40
2022/09/22 03:19:30;;;;;;;;;;;;;;;23.82;29.25;100679.13;5014687;28;1969;-39
2022/09/22 03:21:55;;;;;;;;;;;;;;;23.19;29.87;100680.09;5017313;28;1092;-40
2022/09/22 03:24:20;;;;;;;;;;;;;;;23.28;29.78;100675.66;5016826;28;1151;-41
2022/09/22 03:26:45;;;;;;;;;;;;;;;23.59;29.39;100679.66;5017167;28;1182;-41
2022/09/22 03:29:11;;;;;;;;;;;;;;;23.63;29.36;100681.06;5016762;28;1242;-41
2022/09/22 03:31:36;;;;;;;;;;;;;;;23.63;29.32;100683.75;5016802;28;1464;-43
2022/09/22 03:34:01;;;;;;;;;;;;;;;23.71;29.43;100688.28;5017509;28;1155;-42
2022/09/22 03:36:27;;;;;;;;;;;;;;;23.27;29.91;100683.84;5016969;28;1466;-43
2022/09/22 03:38:52;;;;;;;;;;;;;;;23.17;30.03;100692.00;5016416;28;1971;-42
2022/09/22 03:41:18;;;;;;;;;;;;;;;23.18;29.81;100689.16;5004585;28;1247;-40
2022/09/22 03:43:43;;;;;;;;;;;;;;;22.85;30.24;100694.31;5014119;28;1180;-41
2022/09/22 03:46:08;;;;;;;;;;;;;;;22.79;30.33;100693.06;5016724;28;1229;-43
2022/09/22 03:48:34;;;;;;;;;;;;;;;22.31;31.33;100687.91;5010717;28;1349;-38
2022/09/22 03:50:59;;;;;;;;;;;;;;;22.41;30.94;100693.22;5016791;28;1084;-41
2022/09/22 03:53:24;;;;;;;;;;;;;;;22.18;31.18;100687.44;5016765;28;1202;-41
2022/09/22 03:55:49;;;;;;;;;;;;;;;;;;5016837;28;1243;-43
2022/09/22 03:58:15;;;;;;;;;;;;;;;22.23;32.64;100690.53;5016900;28;1906;-44
2022/09/22 04:00:40;;;;;;;;;;;;;;;23.45;32.03;100691.88;5016347;28;1092;-42
2022/09/22 04:03:05;;;;;;;;;;;;;;;23.88;30.84;100701.78;5017095;28;1246;-38
2022/09/22 04:05:31;;;;;;;;;;;;;;;24.05;30.72;100703.53;5017195;28;1152;-38
2022/09/22 04:07:56;;;;;;;;;;;;;;;24.12;30.87;100713.63;5016900;28;1183;-39
2022/09/22 04:10:22;;;;;;;;;;;;;;;23.99;30.18;100711.41;5015419;28;1151;-40
2022/09/22 04:12:47;;;;;;;;;;;;;;;24.01;30.34;100718.28;5014452;28;1202;-39
2022/09/22 04:15:13;;;;;;;;;;;;;;;24.15;30.21;100716.00;4995968;28;1123;-39
2022/09/22 04:17:38;;;;;;;;;;;;;;;24.33;30.12;100718.59;4996488;28;1243;-39
2022/09/22 04:20:03;;;;;;;;;;;;;;;24.36;30.12;100718.25;5000312;28;1894;-38
2022/09/22 04:22:29;;;;;;;;;;;;;;;24.49;30.01;100714.25;5016716;28;1211;-39
2022/09/22 04:24:54;;;;;;;;;;;;;;;24.54;30.28;100722.66;5016007;28;1108;-38
2022/09/22 04:27:19;;;;;;;;;;;;;;;24.60;30.19;100726.53;5016033;28;1286;-38
2022/09/22 04:29:45;;;;;;;;;;;;;;;24.62;30.40;100724.50;5016467;28;1227;-38
2022/09/22 04:32:10;;;;;;;;;;;;;;;24.68;30.23;100731.91;5015667;28;1246;-38
2022/09/22 04:34:35;;;;;;;;;;;;;;;24.71;30.43;100734.25;5016446;28;1152;-39
2022/09/22 04:37:00;;;;;;;;;;;;;;;24.76;30.50;100733.75;5016600;28;1217;-38
2022/09/22 04:39:27;;;;;;;;;;;;;;;24.76;30.50;100728.38;5015194;28;1910;-38
2022/09/22 04:41:52;;;;;;;;;;;;;;;24.85;30.60;100727.38;5016117;28;1310;-38
2022/09/22 04:44:18;;;;;;;;;;;;;;;24.88;30.73;100724.34;5015752;28;1239;-38
2022/09/22 04:46:44;;;;;;;;;;;;;;;24.96;30.55;100728.91;5009460;28;1278;-38
2022/09/22 04:49:10;;;;;;;;;;;;;;;24.91;30.95;100739.34;4997685;28;1263;-39
2022/09/22 04:51:36;;;;;;;;;;;;;;;25.00;31.05;100743.72;5018391;28;1199;-39
2022/09/22 04:54:01;;;;;;;;;;;;;;;25.01;31.25;100749.94;5019461;28;1275;-38
2022/09/22 04:56:26;;;;;;;;;;;;;;;25.08;31.43;100750.94;5006691;28;1274;-37
2022/09/22 04:58:52;;;;;;;;;;;;;;;25.15;31.47;100757.34;5019954;28;1965;-37
2022/09/22 05:01:17;;;;;;;;;;;;;;;25.21;31.65;100760.38;5019418;28;1210;-37
2022/09/22 05:03:42;;;;;;;;;;;;;;;25.27;31.69;100757.84;5019807;28;1147;-38
2022/09/22 05:06:08;;;;;;;;;;;;;;;25.35;31.63;100761.50;5020010;28;1127;-37
2022/09/22 05:08:33;;;;;;;;;;;;;;;25.31;31.85;100763.69;5013213;28;1159;-38
2022/09/22 05:10:58;;;;;;;;;;;;;;;25.47;31.61;100770.09;5009898;28;1211;-37
2022/09/22 05:13:24;;;;;;;;;;;;;;;25.48;31.90;100771.75;5006833;28;1093;-37
2022/09/22 05:15:49;;;;;;;;;;;;;;;25.40;31.71;100773.47;5019348;28;1219;-37
2022/09/22 05:18:15;;;;;;;;;;;;;;;25.53;31.98;100778.31;5019984;28;1191;-38
2022/09/22 05:20:41;;;;;;;;;;;;;;;25.51;32.29;100777.66;5019450;28;1969;-38
2022/09/22 05:23:07;;;;;;;;;;;;;;;25.63;32.00;100777.31;5019045;28;1167;-37
2022/09/22 05:25:32;;;;;;;;;;;;;;;25.57;32.17;100773.44;5019530;28;1183;-38
2022/09/22 05:27:59;;;;;;;;;;;;;;;25.46;32.52;100777.31;5019091;28;1259;-38
2022/09/22 05:30:24;;;;;;;;;;;;;;;25.47;32.47;100783.56;5019015;28;1147;-38
2022/09/22 05:32:50;;;;;;;;;;;;;;;25.48;32.48;100783.38;5019144;28;1240;-38
2022/09/22 05:35:17;;;;;;;;;;;;;;;25.50;32.55;100775.97;5013547;28;1241;-37
2022/09/22 05:37:43;;;;;;;;;;;;;;;25.77;32.60;100776.63;5017743;28;1198;-37
2022/09/22 05:40:09;;;;;;;;;;;;;;;28.46;28.60;100777.75;5017401;28;1980;-38
2022/09/22 05:42:38;;;;;;;;;;;;;;;26.82;31.36;100775.59;5017582;28;1597;-38
2022/09/22 05:45:03;;;;;;;;;;;;;;;26.29;32.21;100773.53;5017039;28;1081;-40
2022/09/22 05:47:29;;;;;;;;;;;;;;;26.12;32.61;100779.00;5018088;28;1184;-39
2022/09/22 05:49:55;;;;;;;;;;;;;;;26.18;32.17;100777.44;5017848;28;1239;-39
2022/09/22 05:52:20;;;;;;;;;;;;;;;26.03;32.82;100775.50;5017514;28;1172;-39
2022/09/22 05:54:46;;;;;;;;;;;;;;;25.98;33.17;100774.34;5017620;28;1211;-39
2022/09/22 05:57:11;;;;;;;;;;;;;;;26.01;32.66;100777.53;5016027;28;1155;-39
2022/09/22 05:59:36;;;;;;;;;;;;;;;25.99;32.94;100778.72;5017434;28;2004;-40
2022/09/22 06:02:03;;;;;;;;;;;;;;;26.00;32.84;100785.78;5016205;28;1160;-40
2022/09/22 06:04:28;;;;;;;;;;;;;;;27.56;31.19;100792.16;5006718;28;1128;-38
2022/09/22 06:06:54;;;;;;;;;;;;;;;29.26;28.72;100788.72;5002069;28;1378;-43
2022/09/22 06:09:19;;;;;;;;;;;;;;;27.42;31.32;100783.03;5016669;28;1194;-41
2022/09/22 06:11:44;;;;;;;;;;;;;;;26.92;32.09;100780.72;5016651;28;1246;-37
2022/09/22 06:14:10;;;;;;;;;;;;;;;26.80;32.93;100779.47;5016670;28;1128;-38
2022/09/22 06:16:35;;;;;;;;;;;;;;;26.61;32.89;100782.47;5017052;28;1124;-39
2022/09/22 06:19:00;;;;;;;;;;;;;;;26.53;33.25;100777.13;5016763;28;1898;-37
2022/09/22 06:21:26;;;;;;;;;;;;;;;26.57;33.29;100778.47;5016112;28;1202;-37
2022/09/22 06:23:51;;;;;;;;;;;;;;;26.58;33.04;100769.34;5016968;28;1030;-38
2022/09/22 06:26:16;;;;;;;;;;;;;;;26.43;33.34;100771.09;5017453;28;1124;-37
2022/09/22 06:28:42;;;;;;;;;;;;;;;28.07;30.87;100768.13;5017194;28;1116;-38
2022/09/22 06:31:07;;;;;;;;;;;;;;;27.87;30.72;100764.16;5013412;28;1175;-39
2022/09/22 06:33:32;;;;;;;;;;;;;;;27.18;32.37;100774.13;5006958;28;1105;-36
2022/09/22 06:35:59;;;;;;;;;;;;;;;27.01;32.44;100770.69;5016372;28;1408;-38
2022/09/22 06:38:25;;;;;;;;;;;;;;;26.89;32.70;100770.31;5015258;28;1907;-36
2022/09/22 06:40:50;;;;;;;;;;;;;;;26.75;33.00;100775.47;4997465;28;1255;-37
2022/09/22 06:43:27;;;;;;;;;;;;;;;26.73;32.75;100779.34;4996975;28;1282;-38
2022/09/22 06:45:52;;;;;;;;;;;;;;;26.75;32.77;100780.00;5004282;28;1141;-37
2022/09/22 06:48:19;;;;;;;;;;;;;;;26.74;33.00;100779.16;5016092;28;1172;-36
2022/09/22 06:50:47;;;;;;;;;;;;;;;26.63;33.62;100783.13;5016336;28;1270;-37
2022/09/22 06:53:12;;;;;;;;;;;;;;;27.98;31.49;100787.16;5016247;28;1183;-36
2022/09/22 06:55:40;;;;;;;;;;;;;;;29.11;29.73;100788.81;5016226;28;1183;-37
2022/09/22 06:58:05;;;;;;;;;;;;;;;29.38;29.30;100795.25;5016079;28;1144;-36
2022/09/22 07:00:31;;;;;;;;;;;;;;;29.60;29.11;100795.22;5016324;28;1902;-36
2022/09/22 07:03:18;;;;;;;;;;;;;;;29.87;28.75;100792.66;5016782;28;1151;-36
2022/09/22 07:05:50;;;;;;;;;;;;;;;30.06;28.36;100791.06;5016187;28;1218;-35
2022/09/22 07:08:15;;;;;;;;;;;;;;;30.23;28.32;100785.31;5016845;28;1076;-35
2022/09/22 07:10:41;;;;;;;;;;;;;;;30.59;27.64;100780.63;5002345;28;1224;-35
2022/09/22 07:13:09;;;;;;;;;;;;;;;30.65;27.66;100785.22;5009360;28;1112;-34
2022/09/22 07:15:35;;;;;;;;;;;;;;;30.88;27.22;100788.63;5015971;28;1139;-35
2022/09/22 07:18:00;;;;;;;;;;;;;;;30.87;27.37;100792.38;5015885;28;1136;-34
2022/09/22 07:20:25;;;;;;;;;;;;;;;30.92;27.08;100792.59;5016221;28;1953;-35
2022/09/22 07:22:57;;;;;;;;;;;;;;;30.85;27.10;100789.88;5014969;28;859;-35
2022/09/22 07:25:22;;;;;;;;;;;;;;;30.47;27.72;100801.25;5016168;28;1155;-36
2022/09/22 07:27:47;;;;;;;;;;;;;;;29.76;28.73;100801.38;5015652;28;1261;-36
2022/09/22 07:30:13;;;;;;;;;;;;;;;29.11;29.52;100803.19;5015695;28;1104;-35
2022/09/22 07:32:38;;;;;;;;;;;;;;;29.84;28.92;100801.22;5015851;28;1132;-35
2022/09/22 07:35:03;;;;;;;;;;;;;;;30.13;28.57;100811.97;5015659;28;973;-36
2022/09/22 07:37:31;;;;;;;;;;;;;;;30.55;27.87;100807.34;5015367;28;1160;-37
2022/09/22 07:39:56;;;;;;;;;;;;;;;30.50;28.07;100806.28;5014787;28;1973;-35
2022/09/22 07:42:21;;;;;;;;;;;;;;;30.50;28.10;100812.53;5015303;28;1123;-36
2022/09/22 07:50:16;;;;;;;;;;;;;;;30.55;28.24;100811.91;5008016;28;1073;-35
2022/09/22 07:52:41;;;;;;;;;;;;;;;30.71;28.10;100818.88;5015334;28;1135;-33
2022/09/22 07:55:07;;;;;;;;;;;;;;;30.85;27.74;100808.03;5014909;28;1132;-34
2022/09/22 07:57:32;;;;;;;;;;;;;;;30.91;27.72;100805.31;5011785;28;1144;-34
2022/09/22 07:59:58;;;;;;;;;;;;;;;30.95;27.76;100811.19;5011767;28;1898;-35
2022/09/22 08:02:24;;;;;;;;;;;;;;;31.09;27.31;100817.47;5014211;28;1144;-35
2022/09/22 08:04:50;;;;;;;;;;;;;;;31.18;27.45;100807.22;5013675;28;1258;-35
2022/09/22 08:07:15;;;;;;;;;;;;;;;31.22;27.30;100810.34;4995535;28;1204;-35
2022/09/22 08:09:40;;;;;;;;;;;;;;;31.09;27.37;100803.88;5010797;28;993;-35
2022/09/22 08:12:06;;;;;;;;;;;;;;;30.95;27.72;100796.78;5015050;28;1064;-35
2022/09/22 08:14:31;;;;;;;;;;;;;;;30.81;28.08;100791.34;5014875;28;1171;-35
2022/09/22 08:16:56;;;;;;;;;;;;;;;30.13;28.91;100791.09;5014846;28;1112;-35
2022/09/22 08:19:22;;;;;;;;;;;;;;;30.81;28.15;100783.19;5014896;28;1902;-35
2022/09/22 08:21:49;;;;;;;;;;;;;;;30.85;27.96;100789.03;5012961;28;1104;-35
2022/09/22 08:24:14;;;;;;;;;;;;;;;30.98;27.63;100785.50;4996546;28;1266;-35
2022/09/22 08:26:40;;;;;;;;;;;;;;;31.04;27.66;100785.50;5001992;28;1235;-35
2022/09/22 08:29:06;;;;;;;;;;;;;;;31.07;27.65;100780.66;5018555;28;1212;-35
2022/09/22 08:31:33;;;;;;;;;;;;;;;30.62;28.19;100774.78;5018834;28;1251;-34
2022/09/22 08:33:58;;;;;;;;;;;;;;;30.23;28.74;100776.38;5018776;28;1179;-34
2022/09/22 08:36:26;;;;;;;;;;;;;;;29.84;29.33;100767.81;5018731;28;1235;-35
2022/09/22 08:38:53;;;;;;;;;;;;;;;30.60;28.32;100766.00;5018475;28;1996;-34
2022/09/22 08:41:27;;;;;;;;;;;;;;;30.67;28.57;100766.84;5015775;28;1223;-35
2022/09/22 08:43:56;;;;;;;;;;;;;;;30.89;28.09;100772.13;4999041;28;1286;-34
2022/09/22 08:46:29;;;;;;;;;;;;;;;31.01;28.03;100768.78;5003463;28;1235;-36
2022/09/22 08:51:50;;;;;;;;;;;;;;;30.83;27.96;100781.09;5009379;28;923;-36
2022/09/22 08:54:16;;;;;;;;;;;;;;;30.51;28.29;100789.78;5014937;28;1128;-35
2022/09/22 08:56:43;;;;;;;;;;;;;;;30.83;28.29;100789.22;5018672;28;1135;-34
2022/09/22 08:59:11;;;;;;;;;;;;;;;30.84;28.12;100788.22;5006631;28;1902;-35
2022/09/22 09:01:36;;;;;;;;;;;;;;;31.06;28.00;100785.28;5011935;28;1191;-36
2022/09/22 09:04:07;;;;;;;;;;;;;;;31.13;27.83;100780.66;5018028;28;1184;-35
2022/09/22 09:06:50;;;;;;;;;;;;;;;31.15;27.58;100785.88;5006092;28;1164;-36
2022/09/22 09:09:34;;;;;;;;;;;;;;;30.87;27.85;100781.50;5008602;28;1101;-35
2022/09/22 09:12:05;;;;;;;;;;;;;;;30.55;28.59;100771.19;5017660;28;1104;-35
2022/09/22 09:14:36;;;;;;;;;;;;;;;30.92;27.99;100768.16;5018648;28;1591;-36
2022/09/22 09:17:03;;;;;;;;;;;;;;;31.11;27.66;100771.06;5018626;28;1155;-35
2022/09/22 09:19:58;;;;;;;;;;;;;;;31.27;27.61;100773.34;5017995;28;1902;-36
2022/09/22 09:22:28;;;;;;;;;;;;;;;30.95;27.76;100761.47;4944152;28;1250;-36
2022/09/22 09:24:55;;;;;;;;;;;;;;;30.47;28.39;100772.25;5019075;28;1167;-35
2022/09/22 09:27:22;;;;;;;;;;;;;;;30.88;28.18;100765.00;4998528;28;1126;-36
2022/09/22 09:30:06;;;;;;;;;;;;;;;31.10;27.87;100766.66;5009328;28;1140;-35
2022/09/22 09:32:33;;;;;;;;;;;;;;;31.07;27.90;100777.94;5017412;28;1238;-35
2022/09/22 09:34:59;;;;;;;;;;;;;;;30.66;28.12;100770.59;5014472;28;1139;-36
2022/09/22 09:37:24;;;;;;;;;;;;;;;30.37;28.87;100767.22;5017652;28;1262;-36
2022/09/22 09:39:49;;;;;;;;;;;;;;;31.02;28.08;100765.00;5018268;28;1902;-36
2022/09/22 09:42:35;;;;;;;;;;;;;;;30.86;27.80;100769.84;5003140;28;997;-35
2022/09/22 09:45:01;;;;;;;;;;;;;;;30.28;28.56;100776.59;5017929;28;1566;-35
2022/09/22 09:47:33;;;;;;;;;;;;;;;30.79;28.32;100777.94;5017673;28;1140;-34
2022/09/22 09:49:58;;;;;;;;;;;;;;;30.92;28.32;100777.13;5004505;28;1076;-35
2022/09/22 09:52:24;;;;;;;;;;;;;;;31.00;26.91;100775.25;5002016;28;1175;-36
2022/09/22 09:54:50;;;;;;;;;;;;;;;30.64;27.65;100769.13;5017679;28;1108;-36
2022/09/22 09:57:16;;;;;;;;;;;;;;;30.30;28.59;100769.06;5003161;28;1112;-36
2022/09/22 10:02:36;;;;;;;;;;;;;;;31.04;27.49;100765.63;5016358;28;1029;-36
2022/09/22 10:05:06;;;;;;;;;;;;;;;30.68;28.06;100763.09;5004970;28;1089;-36
2022/09/22 10:07:47;;;;;;;;;;;;;;;30.25;28.37;100755.28;5017260;28;1475;-36
2022/09/22 10:10:28;;;;;;;;;;;;;;;29.91;28.87;100739.69;5002227;28;1483;-36
2022/09/22 10:12:53;;;;;;;;;;;;;;;29.63;29.17;100745.22;5004491;28;1128;-35
2022/09/22 10:15:22;;;;;;;;;;;;;;;29.41;29.69;100746.06;5016849;28;1127;-36
2022/09/22 10:17:48;;;;;;;;;;;;;;;29.27;29.93;100753.28;5002414;28;1077;-36
2022/09/22 10:20:15;;;;;;;;;;;;;;;29.24;30.26;100744.72;5016966;28;1890;-36
2022/09/22 10:22:41;;;;;;;;;;;;;;;30.44;28.52;100740.09;5015960;28;1108;-36
2022/09/22 10:25:16;;;;;;;;;;;;;;;31.13;27.20;100745.34;5018071;28;1120;-35
2022/09/22 10:27:42;;;;;;;;;;;;;;;30.15;28.42;100742.91;5009210;28;1207;-36
2022/09/22 10:30:20;;;;;;;;;;;;;;;29.67;29.15;100743.75;5017294;28;1144;-36
2022/09/22 10:33:04;;;;;;;;;;;;;;;29.24;30.03;100742.00;5017274;28;1128;-36
2022/09/22 10:35:29;;;;;;;;;;;;;;;29.05;30.18;100742.50;5008033;28;1239;-36
2022/09/22 10:37:55;;;;;;;;;;;;;;;28.84;30.46;100740.66;5002697;28;1535;-37
2022/09/22 10:40:20;;;;;;;;;;;;;;;28.68;30.96;100741.72;5016210;28;1921;-36
2022/09/22 10:42:47;;;;;;;;;;;;;;;28.59;31.07;100733.75;5017374;28;1152;-36
2022/09/22 10:45:13;;;;;;;;;;;;;;;30.06;29.03;100731.41;5016973;28;1100;-36
2022/09/22 10:47:45;;;;;;;;;;;;;;;30.49;28.18;100732.16;5015997;28;849;-36
2022/09/22 10:50:16;;;;;;;;;;;;;;;30.56;28.04;100729.47;5016686;28;1203;-35
2022/09/22 10:52:50;;;;;;;;;;;;;;;30.65;27.93;100741.78;5016838;28;1112;-36
2022/09/22 10:55:27;;;;;;;;;;;;;;;30.77;27.58;100735.72;5016340;28;1139;-36
2022/09/22 10:58:15;;;;;;;;;;;;;;;30.87;27.41;100729.91;5017140;28;1175;-36
2022/09/22 11:00:41;;;;;;;;;;;;;;;30.20;28.19;100726.03;5011799;28;1973;-36
2022/09/22 11:03:25;;;;;;;;;;;;;;;30.68;27.78;100724.22;5016068;28;1097;-36
2022/09/22 11:12:17;;;;;;;;;;;;;;;31.03;27.14;100726.75;5015428;28;1057;-35
2022/09/22 11:15:02;;;;;;;;;;;;;;;30.94;26.94;100719.03;5004118;28;1172;-36
2022/09/22 11:17:45;;;;;;;;;;;;;;;30.33;28.12;100721.69;5015771;28;1191;-36
2022/09/22 11:20:31;;;;;;;;;;;;;;;30.81;27.44;100715.31;5015955;28;1894;-35
2022/09/22 11:22:56;;;;;;;;;;;;;;;31.01;27.07;100726.13;5015659;28;1092;-36
2022/09/22 11:25:41;;;;;;;;;;;;;;;31.10;26.99;100713.16;5015471;28;1036;-35
2022/09/22 11:28:27;;;;;;;;;;;;;;;31.22;26.68;100724.22;4996981;28;1659;-36
2022/09/22 11:30:53;;;;;;;;;;;;;;;31.12;26.97;100718.38;5001239;28;1061;-36
2022/09/22 11:33:27;;;;;;;;;;;;;;;30.69;27.14;100715.06;5015825;28;1508;-35
2022/09/22 11:35:55;;;;;;;;;;;;;;;30.42;27.91;100713.16;5004056;28;1073;-36
2022/09/22 11:38:24;;;;;;;;;;;;;;;31.01;27.05;100709.00;5015653;28;1119;-36
2022/09/22 11:41:01;;;;;;;;;;;;;;;31.21;26.57;100710.84;5015187;28;1989;-35
2022/09/22 11:43:56;;;;;;;;;;;;;;;30.66;27.20;100705.44;5016413;28;1135;-35
2022/09/22 11:46:24;;;;;;;;;;;;;;;30.27;28.02;100704.34;4943148;28;1166;-36
2022/09/22 11:48:59;;;;;;;;;;;;;;;30.73;27.60;100704.63;5011322;28;1463;-35
2022/09/22 11:51:45;;;;;;;;;;;;;;;30.94;27.03;100700.88;5015672;28;1127;-36
2022/09/22 11:54:10;;;;;;;;;;;;;;;31.18;26.67;100695.00;4995345;28;1141;-36
2022/09/22 11:56:42;;;;;;;;;;;;;;;31.34;26.44;100699.13;4995105;28;1231;-35
2022/09/22 11:59:26;;;;;;;;;;;;;;;30.99;26.80;100692.94;5001166;28;1902;-36
2022/09/22 12:01:52;;;;;;;;;;;;;;;30.57;27.63;100695.84;5001944;28;1033;-35
2022/09/22 12:04:20;;;;;;;;;;;;;;;30.98;27.01;100688.53;5002177;28;1168;-35
2022/09/22 12:06:48;;;;;;;;;;;;;;;31.25;26.76;100688.47;5014362;28;1148;-36
2022/09/22 12:09:28;;;;;;;;;;;;;;;30.85;26.96;100688.53;5015167;28;1136;-35
2022/09/22 12:11:53;;;;;;;;;;;;;;;30.41;27.50;100695.19;5012983;28;1073;-35
2022/09/22 12:14:18;;;;;;;;;;;;;;;30.87;26.97;100687.28;5015469;28;1143;-36
2022/09/22 12:16:44;;;;;;;;;;;;;;;31.02;26.77;100692.50;5015148;28;1127;-36
2022/09/22 12:19:12;;;;;;;;;;;;;;;31.22;26.45;100691.63;5015531;28;1961;-36
2022/09/22 12:21:41;;;;;;;;;;;;;;;31.28;26.36;100696.19;5000438;28;1121;-35
2022/09/22 12:24:07;;;;;;;;;;;;;;;31.33;26.35;100697.47;5014634;28;1132;-36
2022/09/22 12:26:33;;;;;;;;;;;;;;;30.95;26.51;100697.09;5014174;28;1089;-35
2022/09/22 12:28:58;;;;;;;;;;;;;;;30.66;26.88;100691.84;4994672;28;1204;-35
2022/09/22 12:31:50;;;;;;;;;;;;;;;30.08;27.82;100689.69;4994971;28;1165;-36
2022/09/22 12:34:19;;;;;;;;;;;;;;;29.89;28.47;100698.41;5001298;28;1518;-35
2022/09/22 12:36:45;;;;;;;;;;;;;;;30.63;27.34;100695.00;5014027;28;1125;-35
2022/09/22 12:39:10;;;;;;;;;;;;;;;30.91;26.97;100704.81;5014458;28;1910;-36
2022/09/22 12:41:48;;;;;;;;;;;;;;;31.14;26.49;100697.28;5015132;28;1105;-36
2022/09/22 12:44:46;;;;;;;;;;;;;;;31.33;26.17;100692.03;4999682;28;1382;-36
2022/09/22 12:47:43;;;;;;;;;;;;;;;31.28;26.35;100698.91;4975646;28;1164;-36
2022/09/22 12:50:23;;;;;;;;;;;;;;;30.71;26.70;100690.41;4960501;28;1352;-36
2022/09/22 12:52:49;;;;;;;;;;;;;;;30.94;26.80;100698.16;5001099;28;1139;-36
2022/09/22 12:55:14;;;;;;;;;;;;;;;31.03;26.52;100688.72;5000185;28;1093;-36
2022/09/22 12:57:43;;;;;;;;;;;;;;;31.27;26.52;100690.97;5015174;28;1073;-35
2022/09/22 13:00:22;;;;;;;;;;;;;;;31.43;26.25;100697.03;5014910;28;1910;-36
2022/09/22 13:02:48;;;;;;;;;;;;;;;31.24;26.16;100692.25;5014574;28;1191;-36
2022/09/22 13:05:23;;;;;;;;;;;;;;;31.01;26.49;100690.81;5015311;28;1155;-35
2022/09/22 13:07:48;;;;;;;;;;;;;;;31.28;26.09;100693.47;5001786;28;1093;-35
2022/09/22 13:10:26;;;;;;;;;;;;;;;31.53;26.07;100684.66;5013425;28;868;-35
2022/09/22 13:13:08;;;;;;;;;;;;;;;30.92;26.18;100679.34;5006388;28;893;-36
2022/09/22 13:15:48;;;;;;;;;;;;;;;30.34;27.04;100688.09;5018500;28;1100;-35